createdAt,value
2022-10-08T00:01:30.184Z,57.46
2022-10-08T00:03:59.793Z,57.49
2022-10-08T00:06:31.384Z,57.24
2022-10-08T00:09:07.435Z,57.41
2022-10-08T00:11:38.494Z,57.31
2022-10-08T00:14:08.032Z,57.47
2022-10-08T00:16:39.626Z,57.25
2022-10-08T00:19:14.199Z,57.30
2022-10-08T00:21:45.990Z,57.50
2022-10-08T00:24:17.490Z,57.56
2022-10-08T00:26:46.049Z,57.64
2022-10-08T00:29:17.644Z,57.32
2022-10-08T00:31:49.960Z,57.39
2022-10-08T00:34:23.498Z,57.38
2022-10-08T00:36:56.258Z,57.42
2022-10-08T00:39:27.584Z,57.38
2022-10-08T00:41:57.533Z,57.37
2022-10-08T00:45:06.324Z,57.46
2022-10-08T00:47:42.201Z,57.45
2022-10-08T00:50:34.804Z,57.44
2022-10-08T00:53:08.016Z,57.43
2022-10-08T00:55:43.316Z,57.69
2022-10-08T00:58:22.505Z,57.70
2022-10-08T01:00:51.480Z,57.67
2022-10-08T01:03:37.882Z,57.81
2022-10-08T01:06:30.578Z,57.50
2022-10-08T01:09:05.779Z,57.76
2022-10-08T01:11:50.006Z,57.69
2022-10-08T01:15:12.524Z,57.87
2022-10-08T01:18:11.975Z,57.90
2022-10-08T01:21:11.065Z,57.78
2022-10-08T01:23:43.443Z,58.08
2022-10-08T01:26:36.272Z,58.13
2022-10-08T01:29:33.275Z,58.10
2022-10-08T01:32:16.892Z,58.12
2022-10-08T01:35:05.396Z,58.03
2022-10-08T01:37:56.404Z,58.28
2022-10-08T01:40:49.413Z,58.16
2022-10-08T01:43:22.715Z,58.32
2022-10-08T01:46:00.357Z,58.35
2022-10-08T01:48:38.150Z,58.25
2022-10-08T01:51:15.641Z,58.19
2022-10-08T01:53:49.750Z,58.04
2022-10-08T01:56:26.682Z,58.00
2022-10-08T01:59:09.537Z,58.24
2022-10-08T02:01:58.705Z,57.87
2022-10-08T02:04:33.713Z,58.12
2022-10-08T02:07:12.187Z,57.94
2022-10-08T02:09:53.409Z,58.02
2022-10-08T02:12:23.211Z,58.13
2022-10-08T02:14:55.056Z,58.22
2022-10-08T02:17:47.130Z,57.82
2022-10-08T02:20:45.577Z,58.17
2022-10-08T02:23:30.174Z,57.87
2022-10-08T02:26:15.367Z,58.13
2022-10-08T02:29:07.956Z,58.06
2022-10-08T02:32:04.085Z,57.93
2022-10-08T02:34:50.500Z,58.22
2022-10-08T02:37:45.613Z,58.21
2022-10-08T02:40:19.351Z,58.28
2022-10-08T02:42:57.299Z,58.10
2022-10-08T02:45:34.516Z,58.30
2022-10-08T02:48:11.775Z,58.13
2022-10-08T02:50:43.401Z,58.23
2022-10-08T02:53:19.093Z,58.29
2022-10-08T02:56:12.342Z,58.00
2022-10-08T02:58:42.772Z,58.33
2022-10-08T03:01:37.514Z,58.11
2022-10-08T03:04:25.413Z,58.19
2022-10-08T03:06:55.138Z,58.11
2022-10-08T03:09:28.647Z,58.23
2022-10-08T03:11:58.415Z,58.23
2022-10-08T03:14:28.827Z,58.39
2022-10-08T03:16:57.829Z,58.32
2022-10-08T03:19:26.211Z,58.21
2022-10-08T03:21:56.393Z,58.30
2022-10-08T03:24:24.513Z,58.17
2022-10-08T03:26:54.642Z,58.23
2022-10-08T03:29:22.806Z,58.16
2022-10-08T03:31:51.633Z,58.32
2022-10-08T03:34:22.126Z,58.26
2022-10-08T03:36:50.160Z,58.24
2022-10-08T03:39:18.770Z,58.37
2022-10-08T03:41:48.377Z,58.19
2022-10-08T03:44:16.547Z,58.25
2022-10-08T03:46:45.562Z,58.39
2022-10-08T03:49:16.618Z,58.33
2022-10-08T03:51:45.557Z,58.38
2022-10-08T03:54:14.727Z,58.53
2022-10-08T03:56:42.750Z,58.46
2022-10-08T03:59:11.621Z,58.56
2022-10-08T04:01:39.893Z,58.55
2022-10-08T04:04:09.215Z,58.39
2022-10-08T04:06:37.434Z,58.31
2022-10-08T04:09:06.385Z,58.17
2022-10-08T04:11:34.410Z,58.37
2022-10-08T04:14:02.791Z,58.42
2022-10-08T04:16:30.631Z,58.51
2022-10-08T04:18:59.065Z,58.30
2022-10-08T04:21:29.828Z,58.36
2022-10-08T04:23:57.988Z,58.50
2022-10-08T04:26:28.293Z,58.38
2022-10-08T04:28:58.471Z,58.29
2022-10-08T04:31:27.352Z,58.41
2022-10-08T04:33:57.672Z,58.42
2022-10-08T04:36:28.206Z,58.44
2022-10-08T04:38:58.685Z,58.40
2022-10-08T04:41:28.018Z,58.58
2022-10-08T04:44:03.812Z,58.34
2022-10-08T04:46:32.243Z,58.50
2022-10-08T04:49:00.603Z,58.21
2022-10-08T04:51:30.896Z,58.40
2022-10-08T04:53:58.981Z,58.33
2022-10-08T04:56:31.142Z,58.28
2022-10-08T04:59:01.407Z,58.25
2022-10-08T05:01:32.048Z,58.13
2022-10-08T05:04:00.489Z,58.25
2022-10-08T05:06:32.788Z,58.16
2022-10-08T05:09:05.178Z,58.05
2022-10-08T05:11:35.249Z,58.20
2022-10-08T05:14:05.352Z,58.31
2022-10-08T05:16:33.757Z,58.28
2022-10-08T05:19:02.219Z,58.22
2022-10-08T05:21:31.701Z,58.36
2022-10-08T05:24:07.779Z,58.29
2022-10-08T05:26:57.666Z,58.09
2022-10-08T05:29:30.350Z,58.06
2022-10-08T05:31:58.490Z,58.03
2022-10-08T05:34:26.744Z,58.05
2022-10-08T05:36:55.509Z,58.03
2022-10-08T05:39:23.485Z,58.09
2022-10-08T05:41:53.594Z,57.97
2022-10-08T05:44:22.534Z,57.90
2022-10-08T05:46:50.478Z,58.16
2022-10-08T05:49:22.810Z,57.97
2022-10-08T05:51:52.298Z,58.06
2022-10-08T05:54:22.230Z,58.29
2022-10-08T05:56:50.258Z,58.33
2022-10-08T05:59:22.649Z,58.33
2022-10-08T06:01:51.501Z,58.45
2022-10-08T06:04:19.777Z,58.40
2022-10-08T06:06:48.297Z,58.45
2022-10-08T06:09:20.570Z,58.61
2022-10-08T06:11:50.614Z,58.53
2022-10-08T06:14:20.796Z,58.57
2022-10-08T06:16:48.986Z,58.69
2022-10-08T06:19:19.073Z,58.66
2022-10-08T06:21:47.970Z,58.95
2022-10-08T06:24:15.910Z,58.91
2022-10-08T06:26:45.898Z,58.94
2022-10-08T06:29:17.593Z,59.32
2022-10-08T06:31:45.930Z,59.34
2022-10-08T06:34:20.720Z,59.39
2022-10-08T06:36:49.620Z,59.42
2022-10-08T06:39:19.241Z,59.44
2022-10-08T06:41:49.211Z,59.19
2022-10-08T06:44:19.268Z,59.39
2022-10-08T06:46:48.429Z,59.33
2022-10-08T06:49:16.987Z,59.39
2022-10-08T06:51:46.644Z,59.42
2022-10-08T06:54:14.691Z,59.30
2022-10-08T06:56:43.845Z,58.99
2022-10-08T06:59:13.940Z,59.26
2022-10-08T07:01:42.021Z,59.18
2022-10-08T07:04:13.792Z,59.27
2022-10-08T07:06:41.780Z,59.33
2022-10-08T07:09:10.423Z,59.39
2022-10-08T07:11:38.704Z,59.18
2022-10-08T07:14:06.538Z,59.30
2022-10-08T07:16:35.537Z,59.29
2022-10-08T07:19:05.745Z,59.42
2022-10-08T07:21:33.675Z,59.24
2022-10-08T07:24:02.094Z,59.21
2022-10-08T07:26:34.614Z,59.33
2022-10-08T07:29:13.741Z,59.16
2022-10-08T07:31:41.730Z,59.29
2022-10-08T07:34:12.916Z,59.37
2022-10-08T07:36:41.331Z,59.39
2022-10-08T07:39:33.823Z,59.29
2022-10-08T07:42:01.984Z,59.56
2022-10-08T07:44:50.644Z,59.57
2022-10-08T07:47:18.761Z,59.67
2022-10-08T07:49:47.441Z,59.57
2022-10-08T07:52:17.619Z,59.63
2022-10-08T07:54:45.465Z,59.74
2022-10-08T07:57:13.389Z,59.63
2022-10-08T07:59:42.272Z,59.92
2022-10-08T08:02:10.095Z,59.54
2022-10-08T08:04:37.767Z,59.76
2022-10-08T08:07:05.521Z,59.79
2022-10-08T08:09:34.094Z,59.50
2022-10-08T08:12:02.014Z,59.27
2022-10-08T08:14:30.079Z,59.11
2022-10-08T08:16:57.983Z,59.06
2022-10-08T08:19:27.375Z,59.04
2022-10-08T08:21:55.194Z,59.02
2022-10-08T08:24:23.954Z,58.87
2022-10-08T08:26:57.841Z,58.22
2022-10-08T08:29:26.905Z,58.49
2022-10-08T08:31:54.970Z,57.78
2022-10-08T08:34:25.140Z,57.57
2022-10-08T08:36:53.897Z,57.49
2022-10-08T08:39:25.190Z,56.91
2022-10-08T08:42:18.248Z,55.95
2022-10-08T08:45:28.210Z,55.78
2022-10-08T08:48:26.693Z,55.57
2022-10-08T08:50:57.788Z,55.43
2022-10-08T08:53:26.105Z,55.42
2022-10-08T08:55:58.908Z,55.28
2022-10-08T08:58:37.542Z,55.09
2022-10-08T09:01:40.324Z,54.50
2022-10-08T09:04:48.345Z,54.56
2022-10-08T09:07:22.351Z,54.62
2022-10-08T09:09:55.373Z,53.96
2022-10-08T09:12:41.429Z,54.00
2022-10-08T09:15:26.931Z,53.49
2022-10-08T09:17:54.880Z,53.55
2022-10-08T09:20:25.554Z,53.06
2022-10-08T09:22:55.185Z,52.80
2022-10-08T09:25:28.153Z,52.47
2022-10-08T09:28:04.087Z,52.07
2022-10-08T09:30:42.846Z,51.77
2022-10-08T09:33:22.868Z,51.80
2022-10-08T09:35:53.960Z,51.85
2022-10-08T09:38:28.842Z,51.34
2022-10-08T09:41:19.120Z,51.17
2022-10-08T09:44:25.312Z,51.04
2022-10-08T09:47:07.103Z,50.83
2022-10-08T09:49:39.955Z,50.79
2022-10-08T09:52:19.502Z,50.26
2022-10-08T09:54:52.345Z,50.02
2022-10-08T09:57:23.010Z,50.24
2022-10-08T10:00:01.475Z,50.01
2022-10-08T10:02:33.316Z,49.98
2022-10-08T10:05:21.399Z,49.81
2022-10-08T10:07:49.167Z,49.71
2022-10-08T10:10:48.703Z,49.64
2022-10-08T10:13:34.456Z,49.47
2022-10-08T10:16:10.098Z,49.52
2022-10-08T10:19:04.076Z,49.20
2022-10-08T10:22:01.133Z,48.59
2022-10-08T10:24:43.066Z,49.06
2022-10-08T10:27:39.849Z,48.63
2022-10-08T10:30:22.446Z,48.61
2022-10-08T10:33:02.699Z,48.46
2022-10-08T10:35:32.723Z,48.47
2022-10-08T10:38:24.005Z,47.93
2022-10-08T10:41:46.676Z,47.62
2022-10-08T10:44:21.904Z,48.42
2022-10-08T10:47:00.050Z,48.00
2022-10-08T10:49:38.605Z,47.84
2022-10-08T10:52:31.653Z,47.12
2022-10-08T10:55:40.677Z,47.49
2022-10-08T10:58:35.017Z,47.10
2022-10-08T11:01:34.617Z,46.69
2022-10-08T11:04:23.413Z,46.45
2022-10-08T11:08:09.995Z,46.01
2022-10-08T11:10:50.818Z,46.14
2022-10-08T11:13:47.878Z,45.68
2022-10-08T11:16:37.507Z,45.55
2022-10-08T11:19:13.222Z,45.51
2022-10-08T11:22:27.788Z,45.08
2022-10-08T11:25:06.259Z,45.96
2022-10-08T11:28:18.668Z,45.76
2022-10-08T11:31:24.192Z,45.78
2022-10-08T11:33:56.391Z,45.61
2022-10-08T11:36:58.432Z,45.08
2022-10-08T11:39:46.105Z,44.99
2022-10-08T11:42:49.007Z,44.80
2022-10-08T11:45:28.697Z,44.84
2022-10-08T11:48:00.290Z,44.92
2022-10-08T11:50:37.599Z,44.46
2022-10-08T11:53:13.616Z,44.47
2022-10-08T11:55:57.679Z,44.15
2022-10-08T11:58:33.068Z,43.90
2022-10-08T12:01:10.397Z,43.97
2022-10-08T12:03:41.799Z,43.80
2022-10-08T12:06:18.055Z,43.57
2022-10-08T12:08:59.228Z,43.10
2022-10-08T12:11:30.061Z,42.94
2022-10-08T12:14:15.814Z,43.04
2022-10-08T12:16:55.412Z,42.88
2022-10-08T12:19:38.449Z,42.13
2022-10-08T12:22:16.475Z,41.90
2022-10-08T12:24:49.570Z,42.38
2022-10-08T12:27:18.417Z,42.05
2022-10-08T12:30:03.402Z,41.55
2022-10-08T12:32:44.010Z,42.29
2022-10-08T12:35:47.850Z,43.13
2022-10-08T12:38:22.112Z,42.47
2022-10-08T12:40:58.035Z,41.87
2022-10-08T12:44:04.802Z,41.42
2022-10-08T12:46:55.009Z,41.91
2022-10-08T12:49:52.238Z,42.07
2022-10-08T12:52:21.710Z,42.10
2022-10-08T12:54:58.194Z,41.93
2022-10-08T12:57:34.570Z,42.01
2022-10-08T13:00:26.401Z,41.21
2022-10-08T13:03:12.467Z,41.46
2022-10-08T13:05:45.442Z,41.73
2022-10-08T13:08:34.380Z,41.38
2022-10-08T13:11:15.765Z,41.17
2022-10-08T13:13:51.326Z,41.79
2022-10-08T13:16:26.732Z,41.79
2022-10-08T13:18:58.687Z,41.85
2022-10-08T13:21:32.485Z,41.11
2022-10-08T13:24:26.513Z,40.91
2022-10-08T13:26:57.304Z,41.45
2022-10-08T13:29:26.424Z,41.28
2022-10-08T13:32:13.646Z,40.83
2022-10-08T13:34:47.965Z,40.60
2022-10-08T13:37:36.412Z,40.65
2022-10-08T13:40:19.542Z,41.13
2022-10-08T13:42:55.371Z,40.80
2022-10-08T13:45:30.729Z,41.00
2022-10-08T13:47:59.188Z,41.22
2022-10-08T13:50:27.200Z,41.20
2022-10-08T13:52:59.224Z,40.95
2022-10-08T13:55:36.399Z,40.89
2022-10-08T13:58:07.762Z,41.09
2022-10-08T14:00:39.948Z,41.11
2022-10-08T14:03:10.679Z,40.94
2022-10-08T14:05:43.508Z,40.94
2022-10-08T14:08:23.611Z,41.15
2022-10-08T14:10:57.583Z,41.13
2022-10-08T14:13:27.045Z,41.36
2022-10-08T14:15:58.359Z,41.27
2022-10-08T14:18:26.788Z,41.18
2022-10-08T14:20:55.891Z,41.03
2022-10-08T14:23:23.528Z,40.81
2022-10-08T14:25:51.925Z,41.14
2022-10-08T14:28:20.574Z,41.10
2022-10-08T14:30:48.738Z,41.11
2022-10-08T14:33:17.133Z,41.45
2022-10-08T14:35:45.373Z,41.11
2022-10-08T14:38:15.434Z,40.99
2022-10-08T14:40:44.971Z,40.96
2022-10-08T14:43:13.209Z,40.88
2022-10-08T14:45:42.644Z,40.82
2022-10-08T14:48:11.235Z,40.65
2022-10-08T14:50:38.981Z,40.52
2022-10-08T14:53:11.420Z,40.49
2022-10-08T14:56:07.566Z,40.88
2022-10-08T14:58:30.012Z,40.61
2022-10-08T15:00:58.740Z,40.56
2022-10-08T15:03:28.254Z,40.68
2022-10-08T15:06:00.180Z,40.63
2022-10-08T15:08:29.253Z,41.07
2022-10-08T15:10:57.233Z,40.71
2022-10-08T15:13:26.007Z,40.72
2022-10-08T15:15:55.112Z,40.41
2022-10-08T15:18:25.859Z,40.57
2022-10-08T15:20:59.756Z,40.62
2022-10-08T15:23:28.403Z,40.53
2022-10-08T15:26:01.432Z,40.78
2022-10-08T15:28:30.847Z,40.87
2022-10-08T15:31:04.736Z,40.86
2022-10-08T15:33:43.387Z,40.81
2022-10-08T15:36:25.467Z,41.00
2022-10-08T15:39:12.192Z,41.30
2022-10-08T15:41:45.505Z,41.41
2022-10-08T15:44:30.846Z,41.44
2022-10-08T15:47:06.235Z,41.36
2022-10-08T15:49:40.541Z,41.53
2022-10-08T15:52:12.572Z,41.49
2022-10-08T15:54:44.777Z,41.65
2022-10-08T15:57:16.659Z,41.89
2022-10-08T15:59:46.426Z,41.66
2022-10-08T16:02:17.645Z,41.54
2022-10-08T16:04:47.938Z,41.91
2022-10-08T16:07:18.952Z,41.90
2022-10-08T16:09:47.377Z,42.01
2022-10-08T16:12:15.921Z,42.12
2022-10-08T16:14:43.832Z,42.16
2022-10-08T16:17:13.447Z,42.09
2022-10-08T16:19:42.984Z,42.16
2022-10-08T16:22:11.304Z,42.30
2022-10-08T16:24:39.863Z,42.51
2022-10-08T16:27:09.762Z,42.86
2022-10-08T16:29:37.812Z,42.69
2022-10-08T16:32:06.819Z,42.85
2022-10-08T16:34:35.631Z,42.90
2022-10-08T16:37:05.229Z,43.30
2022-10-08T16:39:33.475Z,43.09
2022-10-08T16:42:05.225Z,43.30
2022-10-08T16:44:33.975Z,43.44
2022-10-08T16:47:02.532Z,43.42
2022-10-08T16:49:30.927Z,43.55
2022-10-08T16:52:05.540Z,43.82
2022-10-08T16:54:33.707Z,43.77
2022-10-08T16:57:02.030Z,43.99
2022-10-08T16:59:33.196Z,44.11
2022-10-08T17:02:01.401Z,44.42
2022-10-08T17:04:39.218Z,44.41
2022-10-08T17:07:08.384Z,44.71
2022-10-08T17:09:37.645Z,44.65
2022-10-08T17:12:06.207Z,44.96
2022-10-08T17:14:37.456Z,44.97
2022-10-08T17:17:08.263Z,44.86
2022-10-08T17:19:39.616Z,45.12
2022-10-08T17:22:10.762Z,45.06
2022-10-08T17:24:42.346Z,45.38
2022-10-08T17:27:12.674Z,45.57
2022-10-08T17:29:42.283Z,45.83
2022-10-08T17:32:11.661Z,46.06
2022-10-08T17:34:39.771Z,46.20
2022-10-08T17:37:08.258Z,46.42
2022-10-08T17:39:40.596Z,46.97
2022-10-08T17:42:12.008Z,46.92
2022-10-08T17:44:40.404Z,47.30
2022-10-08T17:47:08.484Z,47.27
2022-10-08T17:49:37.865Z,47.46
2022-10-08T17:52:06.132Z,47.65
2022-10-08T17:54:34.513Z,48.01
2022-10-08T17:57:04.913Z,48.04
2022-10-08T17:59:34.112Z,48.15
2022-10-08T18:02:02.839Z,48.26
2022-10-08T18:04:30.902Z,48.32
2022-10-08T18:07:03.239Z,48.42
2022-10-08T18:09:31.497Z,48.67
2022-10-08T18:11:59.858Z,48.82
2022-10-08T18:14:28.486Z,48.83
2022-10-08T18:16:57.435Z,48.72
2022-10-08T18:19:26.793Z,49.04
2022-10-08T18:21:55.110Z,48.95
2022-10-08T18:24:23.068Z,49.14
2022-10-08T18:26:51.728Z,49.39
2022-10-08T18:29:20.407Z,49.27
2022-10-08T18:31:48.508Z,49.62
2022-10-08T18:34:18.557Z,49.44
2022-10-08T18:36:46.986Z,49.60
2022-10-08T18:39:18.384Z,49.58
2022-10-08T18:41:49.280Z,49.59
2022-10-08T18:44:22.050Z,49.49
2022-10-08T18:46:51.863Z,49.77
2022-10-08T18:49:30.320Z,49.80
2022-10-08T18:51:59.772Z,49.68
2022-10-08T18:54:29.812Z,50.03
2022-10-08T18:57:01.325Z,50.07
2022-10-08T18:59:31.072Z,49.91
2022-10-08T19:02:01.119Z,50.10
2022-10-08T19:04:30.666Z,50.02
2022-10-08T19:06:58.624Z,50.25
2022-10-08T19:09:26.892Z,50.17
2022-10-08T19:11:57.413Z,50.24
2022-10-08T19:14:25.813Z,50.41
2022-10-08T19:16:53.892Z,50.32
2022-10-08T19:19:25.252Z,50.21
2022-10-08T19:21:55.651Z,50.52
2022-10-08T19:24:26.262Z,50.45
2022-10-08T19:26:56.711Z,50.51
2022-10-08T19:29:29.413Z,50.42
2022-10-08T19:31:58.479Z,50.59
2022-10-08T19:34:28.263Z,50.66
2022-10-08T19:36:57.151Z,50.64
2022-10-08T19:39:29.306Z,50.74
2022-10-08T19:41:57.578Z,50.72
2022-10-08T19:44:26.015Z,50.77
2022-10-08T19:46:55.441Z,50.80
2022-10-08T19:49:23.863Z,50.92
2022-10-08T19:51:53.931Z,50.93
2022-10-08T19:54:23.589Z,51.19
2022-10-08T19:56:53.940Z,51.06
2022-10-08T19:59:22.389Z,51.04
2022-10-08T20:01:50.738Z,51.12
2022-10-08T20:04:22.345Z,51.08
2022-10-08T20:06:51.680Z,51.03
2022-10-08T20:09:20.029Z,51.03
2022-10-08T20:11:48.329Z,51.09
2022-10-08T20:14:16.234Z,51.19
2022-10-08T20:16:44.844Z,50.99
2022-10-08T20:19:20.604Z,51.13
2022-10-08T20:21:51.834Z,51.09
2022-10-08T20:24:20.170Z,51.33
2022-10-08T20:26:52.123Z,51.33
2022-10-08T20:29:22.082Z,51.29
2022-10-08T20:31:55.437Z,51.23
2022-10-08T20:34:28.878Z,51.68
2022-10-08T20:36:58.680Z,51.51
2022-10-08T20:39:27.510Z,51.53
2022-10-08T20:41:56.780Z,51.68
2022-10-08T20:44:24.736Z,51.78
2022-10-08T20:46:52.849Z,51.63
2022-10-08T20:49:21.360Z,51.70
2022-10-08T20:51:49.981Z,51.81
2022-10-08T20:54:18.686Z,51.76
2022-10-08T20:56:48.844Z,51.77
2022-10-08T20:59:19.114Z,51.82
2022-10-08T21:01:49.688Z,51.88
2022-10-08T21:04:20.489Z,51.74
2022-10-08T21:06:52.385Z,51.99
2022-10-08T21:09:22.207Z,51.82
2022-10-08T21:11:50.045Z,51.80
2022-10-08T21:14:22.065Z,51.96
2022-10-08T21:16:51.608Z,51.97
2022-10-08T21:19:24.013Z,52.21
2022-10-08T21:21:52.976Z,52.46
2022-10-08T21:24:23.038Z,52.42
2022-10-08T21:26:52.448Z,52.50
2022-10-08T21:29:20.775Z,52.46
2022-10-08T21:31:49.538Z,52.39
2022-10-08T21:34:18.271Z,52.20
2022-10-08T21:36:46.770Z,52.21
2022-10-08T21:39:17.470Z,52.30
2022-10-08T21:41:47.238Z,52.40
2022-10-08T21:44:15.540Z,52.24
2022-10-08T21:46:45.590Z,52.45
2022-10-08T21:49:20.859Z,52.43
2022-10-08T21:51:49.000Z,52.62
2022-10-08T21:54:17.503Z,52.68
2022-10-08T21:56:46.093Z,52.72
2022-10-08T21:59:15.857Z,52.82
2022-10-08T22:01:52.794Z,52.70
2022-10-08T22:04:25.593Z,52.84
2022-10-08T22:07:00.128Z,52.92
2022-10-08T22:09:31.025Z,52.67
2022-10-08T22:12:00.677Z,52.79
2022-10-08T22:14:30.325Z,52.79
2022-10-08T22:16:58.655Z,52.89
2022-10-08T22:19:27.560Z,52.78
2022-10-08T22:21:58.703Z,52.88
2022-10-08T22:24:27.110Z,52.99
2022-10-08T22:26:59.780Z,52.72
2022-10-08T22:29:29.947Z,52.67
2022-10-08T22:31:58.101Z,52.74
2022-10-08T22:34:26.691Z,52.63
2022-10-08T22:36:55.007Z,52.55
2022-10-08T22:39:23.063Z,52.74
2022-10-08T22:41:52.179Z,52.63
2022-10-08T22:44:22.832Z,52.77
2022-10-08T22:46:51.330Z,52.82
2022-10-08T22:49:19.932Z,52.84
2022-10-08T22:51:48.326Z,52.95
2022-10-08T22:54:16.424Z,52.82
2022-10-08T22:56:45.141Z,52.91
2022-10-08T22:59:14.024Z,52.97
2022-10-08T23:01:42.329Z,52.91
2022-10-08T23:04:10.453Z,52.91
2022-10-08T23:06:42.564Z,52.88
2022-10-08T23:09:13.129Z,52.90
2022-10-08T23:11:41.023Z,52.99
2022-10-08T23:14:10.705Z,52.88
2022-10-08T23:16:38.803Z,52.98
2022-10-08T23:19:14.144Z,52.90
2022-10-08T23:21:44.443Z,53.17
2022-10-08T23:24:13.513Z,53.08
2022-10-08T23:26:41.586Z,53.15
2022-10-08T23:29:11.871Z,53.12
2022-10-08T23:31:42.504Z,53.08
2022-10-08T23:34:10.788Z,53.41
2022-10-08T23:36:44.094Z,53.35
2022-10-08T23:39:17.644Z,53.24
2022-10-08T23:41:45.670Z,53.44
2022-10-08T23:44:14.016Z,53.25
2022-10-08T23:46:43.153Z,53.47
2022-10-08T23:49:11.137Z,53.51
2022-10-08T23:51:40.395Z,53.56
2022-10-08T23:54:10.576Z,53.42
2022-10-08T23:56:38.367Z,53.32
2022-10-08T23:59:07.297Z,53.58
